sensor_id;sensor_type;location;lat;lon;timestamp;P1;durP1;ratioP1;P2;durP2;ratioP2
19223;SDS011;9746;47.180;9.776;2023-05-23T11:58:09;0.00;;;0.00;;
19223;SDS011;9746;47.180;9.776;2023-05-23T12:00:42;0.00;;;0.00;;
19223;SDS011;9746;47.180;9.776;2023-05-23T12:03:12;0.00;;;0.00;;
19223;SDS011;9746;47.180;9.776;2023-05-23T12:05:42;0.00;;;0.00;;
19223;SDS011;9746;47.180;9.776;2023-05-23T12:08:11;0.00;;;0.00;;
19223;SDS011;9746;47.180;9.776;2023-05-23T12:10:47;0.00;;;0.00;;
19223;SDS011;9746;47.180;9.776;2023-05-23T12:13:18;0.00;;;0.00;;
19223;SDS011;9746;47.180;9.776;2023-05-23T12:15:45;0.00;;;0.00;;
19223;SDS011;9746;47.180;9.776;2023-05-23T12:18:13;0.00;;;0.00;;
19223;SDS011;9746;47.180;9.776;2023-05-23T12:20:40;0.00;;;0.00;;
19223;SDS011;9746;47.180;9.776;2023-05-23T12:23:08;0.00;;;0.00;;
19223;SDS011;9746;47.180;9.776;2023-05-23T12:25:48;0.00;;;0.00;;
19223;SDS011;9746;47.180;9.776;2023-05-23T12:28:19;0.00;;;0.00;;
19223;SDS011;9746;47.180;9.776;2023-05-23T12:30:47;0.00;;;0.00;;
19223;SDS011;9746;47.180;9.776;2023-05-23T12:33:18;0.08;;;0.08;;
19223;SDS011;9746;47.180;9.776;2023-05-23T12:35:46;0.03;;;0.03;;
19223;SDS011;9746;47.180;9.776;2023-05-23T12:38:14;0.10;;;0.10;;
19223;SDS011;9746;47.180;9.776;2023-05-23T12:40:42;0.10;;;0.10;;
19223;SDS011;9746;47.180;9.776;2023-05-23T12:43:10;0.10;;;0.10;;
19223;SDS011;9746;47.180;9.776;2023-05-23T12:45:40;0.00;;;0.00;;
19223;SDS011;9746;47.180;9.776;2023-05-23T12:48:07;0.05;;;0.05;;
19223;SDS011;9746;47.180;9.776;2023-05-23T12:50:37;0.00;;;0.00;;
19223;SDS011;9746;47.180;9.776;2023-05-23T12:53:05;0.00;;;0.00;;
19223;SDS011;9746;47.180;9.776;2023-05-23T12:55:32;0.00;;;0.00;;
19223;SDS011;9746;47.180;9.776;2023-05-23T12:57:59;0.00;;;0.00;;
19223;SDS011;9746;47.180;9.776;2023-05-23T13:00:27;0.00;;;0.00;;
19223;SDS011;9746;47.180;9.776;2023-05-23T13:02:56;0.00;;;0.00;;
19223;SDS011;9746;47.180;9.776;2023-05-23T13:05:23;0.00;;;0.00;;
19223;SDS011;9746;47.180;9.776;2023-05-23T13:07:51;0.00;;;0.00;;
19223;SDS011;9746;47.180;9.776;2023-05-23T13:10:19;0.00;;;0.00;;
19223;SDS011;9746;47.180;9.776;2023-05-23T13:12:47;0.00;;;0.00;;
19223;SDS011;9746;47.180;9.776;2023-05-23T13:15:14;0.00;;;0.00;;
19223;SDS011;9746;47.180;9.776;2023-05-23T13:17:42;0.00;;;0.00;;
19223;SDS011;9746;47.180;9.776;2023-05-23T13:20:13;0.00;;;0.00;;
19223;SDS011;9746;47.180;9.776;2023-05-23T13:22:41;0.00;;;0.00;;
19223;SDS011;9746;47.180;9.776;2023-05-23T13:25:09;0.00;;;0.00;;
19223;SDS011;9746;47.180;9.776;2023-05-23T13:27:37;0.00;;;0.00;;
19223;SDS011;9746;47.180;9.776;2023-05-23T13:30:07;0.00;;;0.00;;
19223;SDS011;9746;47.180;9.776;2023-05-23T13:32:35;0.00;;;0.00;;
19223;SDS011;9746;47.180;9.776;2023-05-23T13:35:04;0.00;;;0.00;;
19223;SDS011;9746;47.180;9.776;2023-05-23T13:37:33;0.00;;;0.00;;
19223;SDS011;9746;47.180;9.776;2023-05-23T13:40:04;0.00;;;0.00;;
19223;SDS011;9746;47.180;9.776;2023-05-23T13:42:33;0.00;;;0.00;;
19223;SDS011;9746;47.180;9.776;2023-05-23T13:45:01;0.00;;;0.00;;
19223;SDS011;9746;47.180;9.776;2023-05-23T13:47:29;0.00;;;0.00;;
19223;SDS011;9746;47.180;9.776;2023-05-23T13:49:56;0.00;;;0.00;;
19223;SDS011;9746;47.180;9.776;2023-05-23T13:52:24;0.00;;;0.00;;
19223;SDS011;9746;47.180;9.776;2023-05-23T13:54:52;0.00;;;0.00;;
19223;SDS011;9746;47.180;9.776;2023-05-23T13:57:21;0.00;;;0.00;;
19223;SDS011;9746;47.180;9.776;2023-05-23T13:59:48;0.00;;;0.00;;
19223;SDS011;9746;47.180;9.776;2023-05-23T14:02:16;0.00;;;0.00;;
19223;SDS011;9746;47.180;9.776;2023-05-23T14:07:19;0.00;;;0.00;;
19223;SDS011;9746;47.180;9.776;2023-05-23T14:09:48;0.00;;;0.00;;
19223;SDS011;9746;47.180;9.776;2023-05-23T14:12:17;0.00;;;0.00;;
19223;SDS011;9746;47.180;9.776;2023-05-23T14:14:50;0.00;;;0.00;;
19223;SDS011;9746;47.180;9.776;2023-05-23T14:17:18;0.00;;;0.00;;
19223;SDS011;9746;47.180;9.776;2023-05-23T14:19:52;0.00;;;0.00;;
19223;SDS011;9746;47.180;9.776;2023-05-23T14:22:20;0.00;;;0.00;;
19223;SDS011;9746;47.180;9.776;2023-05-23T14:24:48;0.00;;;0.00;;
19223;SDS011;9746;47.180;9.776;2023-05-23T14:27:17;0.00;;;0.00;;
19223;SDS011;9746;47.180;9.776;2023-05-23T14:29:55;0.00;;;0.00;;
19223;SDS011;9746;47.180;9.776;2023-05-23T14:32:22;0.00;;;0.00;;
19223;SDS011;9746;47.180;9.776;2023-05-23T14:37:22;0.10;;;0.10;;
19223;SDS011;9746;47.180;9.776;2023-05-23T14:39:56;0.10;;;0.10;;
19223;SDS011;9746;47.180;9.776;2023-05-23T14:42:26;0.10;;;0.10;;
19223;SDS011;9746;47.180;9.776;2023-05-23T14:44:56;0.10;;;0.10;;
19223;SDS011;9746;47.180;9.776;2023-05-23T14:47:23;0.00;;;0.00;;
19223;SDS011;9746;47.180;9.776;2023-05-23T14:49:52;0.00;;;0.00;;
19223;SDS011;9746;47.180;9.776;2023-05-23T14:52:22;0.00;;;0.00;;
19223;SDS011;9746;47.180;9.776;2023-05-23T14:54:51;0.10;;;0.10;;
19223;SDS011;9746;47.180;9.776;2023-05-23T14:57:19;0.10;;;0.10;;
19223;SDS011;9746;47.180;9.776;2023-05-23T14:59:48;0.10;;;0.10;;
19223;SDS011;9746;47.180;9.776;2023-05-23T15:02:15;0.10;;;0.10;;
19223;SDS011;9746;47.180;9.776;2023-05-23T15:04:44;0.10;;;0.10;;
19223;SDS011;9746;47.180;9.776;2023-05-23T15:07:13;0.10;;;0.10;;
19223;SDS011;9746;47.180;9.776;2023-05-23T15:09:44;0.10;;;0.10;;
19223;SDS011;9746;47.180;9.776;2023-05-23T15:12:12;0.10;;;0.10;;
19223;SDS011;9746;47.180;9.776;2023-05-23T15:14:40;0.10;;;0.10;;
19223;SDS011;9746;47.180;9.776;2023-05-23T15:17:09;0.10;;;0.10;;
19223;SDS011;9746;47.180;9.776;2023-05-23T15:19:43;0.10;;;0.10;;
19223;SDS011;9746;47.180;9.776;2023-05-23T15:22:10;0.10;;;0.10;;
19223;SDS011;9746;47.180;9.776;2023-05-23T15:24:38;0.10;;;0.10;;
19223;SDS011;9746;47.180;9.776;2023-05-23T15:27:06;0.10;;;0.10;;
19223;SDS011;9746;47.180;9.776;2023-05-23T15:29:33;0.10;;;0.10;;
19223;SDS011;9746;47.180;9.776;2023-05-23T15:32:04;0.10;;;0.10;;
19223;SDS011;9746;47.180;9.776;2023-05-23T15:34:33;0.10;;;0.10;;
19223;SDS011;9746;47.180;9.776;2023-05-23T15:37:01;0.10;;;0.10;;
19223;SDS011;9746;47.180;9.776;2023-05-23T15:39:29;0.10;;;0.10;;
19223;SDS011;9746;47.180;9.776;2023-05-23T15:41:58;0.10;;;0.10;;
19223;SDS011;9746;47.180;9.776;2023-05-23T15:44:25;0.10;;;0.10;;
19223;SDS011;9746;47.180;9.776;2023-05-23T15:49:23;0.10;;;0.10;;
19223;SDS011;9746;47.180;9.776;2023-05-23T15:51:52;0.05;;;0.05;;
19223;SDS011;9746;47.180;9.776;2023-05-23T15:54:19;0.10;;;0.10;;
19223;SDS011;9746;47.180;9.776;2023-05-23T15:56:47;0.10;;;0.10;;
19223;SDS011;9746;47.180;9.776;2023-05-23T15:59:14;0.10;;;0.10;;
19223;SDS011;9746;47.180;9.776;2023-05-23T16:01:44;0.10;;;0.10;;
19223;SDS011;9746;47.180;9.776;2023-05-23T16:04:11;0.10;;;0.10;;
19223;SDS011;9746;47.180;9.776;2023-05-23T16:06:40;0.10;;;0.10;;
19223;SDS011;9746;47.180;9.776;2023-05-23T16:09:10;0.10;;;0.10;;
19223;SDS011;9746;47.180;9.776;2023-05-23T16:14:08;0.10;;;0.10;;
19223;SDS011;9746;47.180;9.776;2023-05-23T16:16:36;0.10;;;0.10;;
19223;SDS011;9746;47.180;9.776;2023-05-23T16:19:03;0.10;;;0.10;;
19223;SDS011;9746;47.180;9.776;2023-05-23T16:21:31;0.10;;;0.10;;
19223;SDS011;9746;47.180;9.776;2023-05-23T16:24:03;0.10;;;0.10;;
19223;SDS011;9746;47.180;9.776;2023-05-23T16:26:38;0.10;;;0.10;;
19223;SDS011;9746;47.180;9.776;2023-05-23T16:29:06;0.10;;;0.10;;
19223;SDS011;9746;47.180;9.776;2023-05-23T16:31:35;0.10;;;0.10;;
19223;SDS011;9746;47.180;9.776;2023-05-23T16:34:03;0.10;;;0.10;;
19223;SDS011;9746;47.180;9.776;2023-05-23T16:36:38;0.10;;;0.10;;
19223;SDS011;9746;47.180;9.776;2023-05-23T16:39:05;0.10;;;0.10;;
19223;SDS011;9746;47.180;9.776;2023-05-23T16:41:43;0.10;;;0.10;;
19223;SDS011;9746;47.180;9.776;2023-05-23T16:44:15;0.10;;;0.10;;
19223;SDS011;9746;47.180;9.776;2023-05-23T16:46:50;0.10;;;0.10;;
19223;SDS011;9746;47.180;9.776;2023-05-23T16:49:24;0.10;;;0.10;;
19223;SDS011;9746;47.180;9.776;2023-05-23T16:51:55;0.10;;;0.10;;
19223;SDS011;9746;47.180;9.776;2023-05-23T16:54:23;0.10;;;0.10;;
19223;SDS011;9746;47.180;9.776;2023-05-23T16:56:54;0.10;;;0.10;;
19223;SDS011;9746;47.180;9.776;2023-05-23T16:59:26;0.10;;;0.10;;
19223;SDS011;9746;47.180;9.776;2023-05-23T17:01:56;0.10;;;0.10;;
19223;SDS011;9746;47.180;9.776;2023-05-23T17:04:25;0.10;;;0.10;;
19223;SDS011;9746;47.180;9.776;2023-05-23T17:07:03;0.10;;;0.10;;
19223;SDS011;9746;47.180;9.776;2023-05-23T17:09:34;0.10;;;0.10;;
19223;SDS011;9746;47.180;9.776;2023-05-23T17:12:17;0.10;;;0.10;;
19223;SDS011;9746;47.180;9.776;2023-05-23T17:14:44;0.10;;;0.10;;
19223;SDS011;9746;47.180;9.776;2023-05-23T17:17:15;0.10;;;0.10;;
19223;SDS011;9746;47.180;9.776;2023-05-23T17:19:46;0.10;;;0.10;;
19223;SDS011;9746;47.180;9.776;2023-05-23T17:22:14;0.10;;;0.10;;
19223;SDS011;9746;47.180;9.776;2023-05-23T17:24:44;0.10;;;0.10;;
19223;SDS011;9746;47.180;9.776;2023-05-23T17:29:59;0.10;;;0.10;;
19223;SDS011;9746;47.180;9.776;2023-05-23T17:32:32;0.10;;;0.10;;
19223;SDS011;9746;47.180;9.776;2023-05-23T17:35:00;0.17;;;0.17;;
19223;SDS011;9746;47.180;9.776;2023-05-23T17:37:29;0.10;;;0.10;;
19223;SDS011;9746;47.180;9.776;2023-05-23T17:39:56;0.10;;;0.10;;
19223;SDS011;9746;47.180;9.776;2023-05-23T17:42:32;0.10;;;0.10;;
19223;SDS011;9746;47.180;9.776;2023-05-23T17:45:01;0.10;;;0.10;;
19223;SDS011;9746;47.180;9.776;2023-05-23T17:47:30;0.10;;;0.10;;
19223;SDS011;9746;47.180;9.776;2023-05-23T17:49:58;0.10;;;0.10;;
19223;SDS011;9746;47.180;9.776;2023-05-23T17:52:33;0.10;;;0.10;;
19223;SDS011;9746;47.180;9.776;2023-05-23T17:55:04;0.20;;;0.20;;
19223;SDS011;9746;47.180;9.776;2023-05-23T17:57:42;0.10;;;0.10;;
19223;SDS011;9746;47.180;9.776;2023-05-23T18:00:11;0.10;;;0.10;;
19223;SDS011;9746;47.180;9.776;2023-05-23T18:02:40;0.10;;;0.10;;
19223;SDS011;9746;47.180;9.776;2023-05-23T18:05:08;0.10;;;0.10;;
19223;SDS011;9746;47.180;9.776;2023-05-23T18:07:37;0.10;;;0.10;;
19223;SDS011;9746;47.180;9.776;2023-05-23T18:10:06;0.10;;;0.10;;
19223;SDS011;9746;47.180;9.776;2023-05-23T18:15:23;0.10;;;0.10;;
19223;SDS011;9746;47.180;9.776;2023-05-23T18:20:39;0.10;;;0.10;;
19223;SDS011;9746;47.180;9.776;2023-05-23T18:23:07;0.10;;;0.10;;
19223;SDS011;9746;47.180;9.776;2023-05-23T18:25:37;0.10;;;0.10;;
19223;SDS011;9746;47.180;9.776;2023-05-23T18:28:09;0.10;;;0.10;;
19223;SDS011;9746;47.180;9.776;2023-05-23T18:30:38;0.10;;;0.10;;
19223;SDS011;9746;47.180;9.776;2023-05-23T18:33:06;0.10;;;0.10;;
19223;SDS011;9746;47.180;9.776;2023-05-23T18:35:34;0.10;;;0.10;;
19223;SDS011;9746;47.180;9.776;2023-05-23T18:38:04;0.10;;;0.10;;
19223;SDS011;9746;47.180;9.776;2023-05-23T18:40:31;0.10;;;0.10;;
19223;SDS011;9746;47.180;9.776;2023-05-23T18:43:01;0.20;;;0.20;;
19223;SDS011;9746;47.180;9.776;2023-05-23T18:45:32;0.10;;;0.10;;
19223;SDS011;9746;47.180;9.776;2023-05-23T18:51:09;0.17;;;0.17;;
19223;SDS011;9746;47.180;9.776;2023-05-23T18:53:43;0.17;;;0.17;;
19223;SDS011;9746;47.180;9.776;2023-05-23T18:56:17;0.10;;;0.10;;
19223;SDS011;9746;47.180;9.776;2023-05-23T18:58:48;0.10;;;0.10;;
19223;SDS011;9746;47.180;9.776;2023-05-23T19:01:17;0.10;;;0.10;;
19223;SDS011;9746;47.180;9.776;2023-05-23T19:03:47;0.10;;;0.10;;
19223;SDS011;9746;47.180;9.776;2023-05-23T19:08:51;0.10;;;0.10;;
19223;SDS011;9746;47.180;9.776;2023-05-23T19:11:19;0.10;;;0.10;;
19223;SDS011;9746;47.180;9.776;2023-05-23T19:13:47;0.10;;;0.10;;
19223;SDS011;9746;47.180;9.776;2023-05-23T19:16:16;0.10;;;0.10;;
19223;SDS011;9746;47.180;9.776;2023-05-23T19:18:54;0.20;;;0.20;;
19223;SDS011;9746;47.180;9.776;2023-05-23T19:21:22;0.20;;;0.20;;
19223;SDS011;9746;47.180;9.776;2023-05-23T19:23:49;0.10;;;0.10;;
19223;SDS011;9746;47.180;9.776;2023-05-23T19:26:17;0.10;;;0.10;;
19223;SDS011;9746;47.180;9.776;2023-05-23T19:28:45;0.20;;;0.20;;
19223;SDS011;9746;47.180;9.776;2023-05-23T19:31:12;0.20;;;0.20;;
19223;SDS011;9746;47.180;9.776;2023-05-23T19:33:40;0.10;;;0.10;;
19223;SDS011;9746;47.180;9.776;2023-05-23T19:36:08;0.20;;;0.20;;
19223;SDS011;9746;47.180;9.776;2023-05-23T19:38:36;0.10;;;0.10;;
19223;SDS011;9746;47.180;9.776;2023-05-23T19:41:04;0.20;;;0.20;;
19223;SDS011;9746;47.180;9.776;2023-05-23T19:43:33;0.13;;;0.13;;
19223;SDS011;9746;47.180;9.776;2023-05-23T19:46:01;0.20;;;0.20;;
19223;SDS011;9746;47.180;9.776;2023-05-23T19:48:30;0.20;;;0.20;;
19223;SDS011;9746;47.180;9.776;2023-05-23T19:50:58;0.20;;;0.20;;
19223;SDS011;9746;47.180;9.776;2023-05-23T19:53:26;0.20;;;0.20;;
19223;SDS011;9746;47.180;9.776;2023-05-23T19:55:54;0.20;;;0.20;;
19223;SDS011;9746;47.180;9.776;2023-05-23T19:58:24;0.20;;;0.20;;
19223;SDS011;9746;47.180;9.776;2023-05-23T20:00:52;0.20;;;0.20;;
19223;SDS011;9746;47.180;9.776;2023-05-23T20:03:22;0.10;;;0.10;;
19223;SDS011;9746;47.180;9.776;2023-05-23T20:05:50;0.20;;;0.20;;
19223;SDS011;9746;47.180;9.776;2023-05-23T20:10:55;0.20;;;0.20;;
19223;SDS011;9746;47.180;9.776;2023-05-23T20:13:24;0.20;;;0.20;;
19223;SDS011;9746;47.180;9.776;2023-05-23T20:15:53;0.17;;;0.17;;
19223;SDS011;9746;47.180;9.776;2023-05-23T20:18:22;0.20;;;0.20;;
19223;SDS011;9746;47.180;9.776;2023-05-23T20:20:50;0.20;;;0.20;;
19223;SDS011;9746;47.180;9.776;2023-05-23T20:23:23;0.20;;;0.20;;
19223;SDS011;9746;47.180;9.776;2023-05-23T20:25:54;0.20;;;0.20;;
19223;SDS011;9746;47.180;9.776;2023-05-23T20:28:24;0.10;;;0.10;;
19223;SDS011;9746;47.180;9.776;2023-05-23T20:30:53;0.20;;;0.20;;
19223;SDS011;9746;47.180;9.776;2023-05-23T20:33:21;0.20;;;0.20;;
19223;SDS011;9746;47.180;9.776;2023-05-23T20:35:49;0.20;;;0.20;;
19223;SDS011;9746;47.180;9.776;2023-05-23T20:38:18;0.20;;;0.20;;
19223;SDS011;9746;47.180;9.776;2023-05-23T20:40:45;0.20;;;0.20;;
19223;SDS011;9746;47.180;9.776;2023-05-23T20:43:15;0.20;;;0.20;;
